sensor_id;sensor_type;location;lat;lon;timestamp;P1;durP1;ratioP1;P2;durP2;ratioP2
66966;SDS011;53900;51.468;-2.586;2023-08-01T00:02:19;18.50;;;4.95;;
66966;SDS011;53900;51.468;-2.586;2023-08-01T00:04:44;22.30;;;4.88;;
66966;SDS011;53900;51.468;-2.586;2023-08-01T00:07:09;28.35;;;5.25;;
66966;SDS011;53900;51.468;-2.586;2023-08-01T00:09:35;16.95;;;4.28;;
66966;SDS011;53900;51.468;-2.586;2023-08-01T00:12:00;23.38;;;4.63;;
66966;SDS011;53900;51.468;-2.586;2023-08-01T00:14:25;21.42;;;4.95;;
66966;SDS011;53900;51.468;-2.586;2023-08-01T00:16:50;17.77;;;4.53;;
66966;SDS011;53900;51.468;-2.586;2023-08-01T00:19:16;16.77;;;4.25;;
66966;SDS011;53900;51.468;-2.586;2023-08-01T00:21:41;24.35;;;4.07;;
66966;SDS011;53900;51.468;-2.586;2023-08-01T00:24:06;16.05;;;3.78;;
66966;SDS011;53900;51.468;-2.586;2023-08-01T00:26:33;21.30;;;4.20;;
66966;SDS011;53900;51.468;-2.586;2023-08-01T00:28:58;21.48;;;3.70;;
66966;SDS011;53900;51.468;-2.586;2023-08-01T00:31:23;21.83;;;3.72;;
66966;SDS011;53900;51.468;-2.586;2023-08-01T00:33:48;18.45;;;3.58;;
66966;SDS011;53900;51.468;-2.586;2023-08-01T00:36:13;21.67;;;4.15;;
66966;SDS011;53900;51.468;-2.586;2023-08-01T00:38:39;18.05;;;4.15;;
66966;SDS011;53900;51.468;-2.586;2023-08-01T00:41:04;22.52;;;4.00;;
66966;SDS011;53900;51.468;-2.586;2023-08-01T00:43:29;23.10;;;3.85;;
66966;SDS011;53900;51.468;-2.586;2023-08-01T00:45:55;19.35;;;3.53;;
66966;SDS011;53900;51.468;-2.586;2023-08-01T00:48:24;15.98;;;3.30;;
66966;SDS011;53900;51.468;-2.586;2023-08-01T00:50:49;17.77;;;3.38;;
66966;SDS011;53900;51.468;-2.586;2023-08-01T00:53:15;16.88;;;3.70;;
66966;SDS011;53900;51.468;-2.586;2023-08-01T00:55:40;14.68;;;3.55;;
66966;SDS011;53900;51.468;-2.586;2023-08-01T00:58:05;16.67;;;3.17;;
66966;SDS011;53900;51.468;-2.586;2023-08-01T01:00:30;16.10;;;3.28;;
66966;SDS011;53900;51.468;-2.586;2023-08-01T01:02:56;12.43;;;2.40;;
66966;SDS011;53900;51.468;-2.586;2023-08-01T01:05:21;17.83;;;3.45;;
66966;SDS011;53900;51.468;-2.586;2023-08-01T01:07:47;10.93;;;3.00;;
66966;SDS011;53900;51.468;-2.586;2023-08-01T01:10:13;17.55;;;4.05;;
66966;SDS011;53900;51.468;-2.586;2023-08-01T01:12:38;18.15;;;3.25;;
66966;SDS011;53900;51.468;-2.586;2023-08-01T01:15:04;16.67;;;3.63;;
66966;SDS011;53900;51.468;-2.586;2023-08-01T01:17:30;14.45;;;2.92;;
66966;SDS011;53900;51.468;-2.586;2023-08-01T01:19:55;17.73;;;3.10;;
66966;SDS011;53900;51.468;-2.586;2023-08-01T01:22:20;14.07;;;3.08;;
66966;SDS011;53900;51.468;-2.586;2023-08-01T01:24:46;11.07;;;2.90;;
66966;SDS011;53900;51.468;-2.586;2023-08-01T01:27:12;12.63;;;3.45;;
66966;SDS011;53900;51.468;-2.586;2023-08-01T01:29:38;12.25;;;3.40;;
66966;SDS011;53900;51.468;-2.586;2023-08-01T01:32:04;17.23;;;3.40;;
66966;SDS011;53900;51.468;-2.586;2023-08-01T01:34:31;10.10;;;2.80;;
66966;SDS011;53900;51.468;-2.586;2023-08-01T01:36:56;16.23;;;3.15;;
66966;SDS011;53900;51.468;-2.586;2023-08-01T01:39:21;16.52;;;3.42;;
66966;SDS011;53900;51.468;-2.586;2023-08-01T01:41:46;10.93;;;2.97;;
66966;SDS011;53900;51.468;-2.586;2023-08-01T01:44:11;21.15;;;3.10;;
66966;SDS011;53900;51.468;-2.586;2023-08-01T01:46:37;13.57;;;2.88;;
66966;SDS011;53900;51.468;-2.586;2023-08-01T01:49:02;8.32;;;2.35;;
66966;SDS011;53900;51.468;-2.586;2023-08-01T01:51:27;15.57;;;2.72;;
66966;SDS011;53900;51.468;-2.586;2023-08-01T01:53:53;17.15;;;3.22;;
66966;SDS011;53900;51.468;-2.586;2023-08-01T01:56:18;9.93;;;2.55;;
66966;SDS011;53900;51.468;-2.586;2023-08-01T01:58:43;11.73;;;2.42;;
66966;SDS011;53900;51.468;-2.586;2023-08-01T02:01:08;10.60;;;2.10;;
66966;SDS011;53900;51.468;-2.586;2023-08-01T02:03:34;12.95;;;2.55;;
66966;SDS011;53900;51.468;-2.586;2023-08-01T02:05:59;12.70;;;2.00;;
66966;SDS011;53900;51.468;-2.586;2023-08-01T02:08:24;13.32;;;2.75;;
66966;SDS011;53900;51.468;-2.586;2023-08-01T02:10:49;14.40;;;2.97;;
66966;SDS011;53900;51.468;-2.586;2023-08-01T02:13:15;8.73;;;1.98;;
66966;SDS011;53900;51.468;-2.586;2023-08-01T02:15:40;11.77;;;2.30;;
66966;SDS011;53900;51.468;-2.586;2023-08-01T02:18:05;12.18;;;2.20;;
66966;SDS011;53900;51.468;-2.586;2023-08-01T02:20:30;8.60;;;2.00;;
66966;SDS011;53900;51.468;-2.586;2023-08-01T02:22:56;9.43;;;2.30;;
66966;SDS011;53900;51.468;-2.586;2023-08-01T02:25:21;10.32;;;1.90;;
66966;SDS011;53900;51.468;-2.586;2023-08-01T02:27:46;12.05;;;2.17;;
66966;SDS011;53900;51.468;-2.586;2023-08-01T02:30:12;17.90;;;2.30;;
66966;SDS011;53900;51.468;-2.586;2023-08-01T02:32:37;8.93;;;1.98;;
66966;SDS011;53900;51.468;-2.586;2023-08-01T02:35:02;9.63;;;2.35;;
66966;SDS011;53900;51.468;-2.586;2023-08-01T02:37:27;13.60;;;2.63;;
66966;SDS011;53900;51.468;-2.586;2023-08-01T02:39:52;8.88;;;1.42;;
66966;SDS011;53900;51.468;-2.586;2023-08-01T02:42:18;6.90;;;2.10;;
66966;SDS011;53900;51.468;-2.586;2023-08-01T02:44:43;8.35;;;1.90;;
66966;SDS011;53900;51.468;-2.586;2023-08-01T02:47:08;11.68;;;2.40;;
66966;SDS011;53900;51.468;-2.586;2023-08-01T02:49:33;14.52;;;2.28;;
66966;SDS011;53900;51.468;-2.586;2023-08-01T02:51:58;10.35;;;2.67;;
66966;SDS011;53900;51.468;-2.586;2023-08-01T02:54:24;9.07;;;2.10;;
66966;SDS011;53900;51.468;-2.586;2023-08-01T02:56:49;9.23;;;2.40;;
66966;SDS011;53900;51.468;-2.586;2023-08-01T02:59:15;10.38;;;2.05;;
66966;SDS011;53900;51.468;-2.586;2023-08-01T03:01:40;10.48;;;2.33;;
66966;SDS011;53900;51.468;-2.586;2023-08-01T03:04:05;12.55;;;2.55;;
66966;SDS011;53900;51.468;-2.586;2023-08-01T03:06:32;15.68;;;2.50;;
66966;SDS011;53900;51.468;-2.586;2023-08-01T03:08:57;14.68;;;2.33;;
66966;SDS011;53900;51.468;-2.586;2023-08-01T03:11:22;9.20;;;2.10;;
66966;SDS011;53900;51.468;-2.586;2023-08-01T03:13:47;11.13;;;2.50;;
66966;SDS011;53900;51.468;-2.586;2023-08-01T03:16:12;11.05;;;2.35;;
66966;SDS011;53900;51.468;-2.586;2023-08-01T03:18:38;9.88;;;2.20;;
66966;SDS011;53900;51.468;-2.586;2023-08-01T03:21:03;10.82;;;2.22;;
66966;SDS011;53900;51.468;-2.586;2023-08-01T03:23:29;10.85;;;2.58;;
66966;SDS011;53900;51.468;-2.586;2023-08-01T03:25:54;13.27;;;2.88;;
66966;SDS011;53900;51.468;-2.586;2023-08-01T03:28:19;9.80;;;2.08;;
66966;SDS011;53900;51.468;-2.586;2023-08-01T03:30:44;11.32;;;2.38;;
66966;SDS011;53900;51.468;-2.586;2023-08-01T03:33:10;12.80;;;2.03;;
66966;SDS011;53900;51.468;-2.586;2023-08-01T03:35:35;10.88;;;2.30;;
66966;SDS011;53900;51.468;-2.586;2023-08-01T03:38:00;15.52;;;2.40;;
66966;SDS011;53900;51.468;-2.586;2023-08-01T03:40:25;13.25;;;2.40;;
66966;SDS011;53900;51.468;-2.586;2023-08-01T03:42:50;15.65;;;2.63;;
66966;SDS011;53900;51.468;-2.586;2023-08-01T03:45:15;5.95;;;2.40;;
66966;SDS011;53900;51.468;-2.586;2023-08-01T03:47:41;17.35;;;2.15;;
66966;SDS011;53900;51.468;-2.586;2023-08-01T03:50:06;11.18;;;2.20;;
66966;SDS011;53900;51.468;-2.586;2023-08-01T03:52:31;10.80;;;2.20;;
66966;SDS011;53900;51.468;-2.586;2023-08-01T03:54:57;9.73;;;1.98;;
66966;SDS011;53900;51.468;-2.586;2023-08-01T03:57:22;8.88;;;1.80;;
66966;SDS011;53900;51.468;-2.586;2023-08-01T03:59:47;11.05;;;1.65;;
66966;SDS011;53900;51.468;-2.586;2023-08-01T04:02:12;10.68;;;1.75;;
66966;SDS011;53900;51.468;-2.586;2023-08-01T04:04:37;12.60;;;2.05;;
66966;SDS011;53900;51.468;-2.586;2023-08-01T04:07:03;10.27;;;1.83;;
66966;SDS011;53900;51.468;-2.586;2023-08-01T04:09:28;7.95;;;2.10;;
66966;SDS011;53900;51.468;-2.586;2023-08-01T04:11:53;13.88;;;2.47;;
66966;SDS011;53900;51.468;-2.586;2023-08-01T04:14:19;7.65;;;1.77;;
66966;SDS011;53900;51.468;-2.586;2023-08-01T04:16:44;9.55;;;1.77;;
66966;SDS011;53900;51.468;-2.586;2023-08-01T04:19:09;11.20;;;1.60;;
66966;SDS011;53900;51.468;-2.586;2023-08-01T04:21:34;7.63;;;1.80;;
66966;SDS011;53900;51.468;-2.586;2023-08-01T04:24:00;6.60;;;1.75;;
66966;SDS011;53900;51.468;-2.586;2023-08-01T04:26:25;9.13;;;1.63;;
66966;SDS011;53900;51.468;-2.586;2023-08-01T04:28:50;9.75;;;1.75;;
66966;SDS011;53900;51.468;-2.586;2023-08-01T04:31:15;6.47;;;1.40;;
66966;SDS011;53900;51.468;-2.586;2023-08-01T04:33:40;9.90;;;1.65;;
66966;SDS011;53900;51.468;-2.586;2023-08-01T04:36:06;8.73;;;1.73;;
66966;SDS011;53900;51.468;-2.586;2023-08-01T04:38:31;11.77;;;1.88;;
66966;SDS011;53900;51.468;-2.586;2023-08-01T04:40:56;7.38;;;1.80;;
66966;SDS011;53900;51.468;-2.586;2023-08-01T04:43:22;10.43;;;1.83;;
66966;SDS011;53900;51.468;-2.586;2023-08-01T04:45:47;9.05;;;1.52;;
66966;SDS011;53900;51.468;-2.586;2023-08-01T04:48:12;11.52;;;2.10;;
66966;SDS011;53900;51.468;-2.586;2023-08-01T04:50:37;10.25;;;2.35;;
66966;SDS011;53900;51.468;-2.586;2023-08-01T04:53:02;6.40;;;1.45;;
66966;SDS011;53900;51.468;-2.586;2023-08-01T04:55:28;9.65;;;2.17;;
66966;SDS011;53900;51.468;-2.586;2023-08-01T04:57:54;8.02;;;1.65;;
66966;SDS011;53900;51.468;-2.586;2023-08-01T05:00:19;13.05;;;1.70;;
66966;SDS011;53900;51.468;-2.586;2023-08-01T05:02:44;10.85;;;1.65;;
66966;SDS011;53900;51.468;-2.586;2023-08-01T05:05:09;8.35;;;1.75;;
66966;SDS011;53900;51.468;-2.586;2023-08-01T05:07:34;7.45;;;1.67;;
66966;SDS011;53900;51.468;-2.586;2023-08-01T05:10:00;12.43;;;1.98;;
66966;SDS011;53900;51.468;-2.586;2023-08-01T05:12:25;7.47;;;1.75;;
66966;SDS011;53900;51.468;-2.586;2023-08-01T05:14:50;5.97;;;1.55;;
66966;SDS011;53900;51.468;-2.586;2023-08-01T05:17:15;8.32;;;1.65;;
66966;SDS011;53900;51.468;-2.586;2023-08-01T05:19:40;10.30;;;1.65;;
66966;SDS011;53900;51.468;-2.586;2023-08-01T05:22:06;8.50;;;1.73;;
66966;SDS011;53900;51.468;-2.586;2023-08-01T05:24:31;12.23;;;2.22;;
66966;SDS011;53900;51.468;-2.586;2023-08-01T05:26:56;9.63;;;1.90;;
66966;SDS011;53900;51.468;-2.586;2023-08-01T05:29:21;15.82;;;2.15;;
66966;SDS011;53900;51.468;-2.586;2023-08-01T05:31:47;12.90;;;1.73;;
66966;SDS011;53900;51.468;-2.586;2023-08-01T05:34:12;12.65;;;2.00;;
66966;SDS011;53900;51.468;-2.586;2023-08-01T05:36:37;9.73;;;2.40;;
66966;SDS011;53900;51.468;-2.586;2023-08-01T05:39:02;9.45;;;1.55;;
66966;SDS011;53900;51.468;-2.586;2023-08-01T05:41:28;10.13;;;2.00;;
66966;SDS011;53900;51.468;-2.586;2023-08-01T05:43:53;12.93;;;1.83;;
66966;SDS011;53900;51.468;-2.586;2023-08-01T05:46:18;8.75;;;1.77;;
66966;SDS011;53900;51.468;-2.586;2023-08-01T05:48:44;6.30;;;1.80;;
66966;SDS011;53900;51.468;-2.586;2023-08-01T05:51:09;9.15;;;1.50;;
66966;SDS011;53900;51.468;-2.586;2023-08-01T05:53:34;8.13;;;1.60;;
66966;SDS011;53900;51.468;-2.586;2023-08-01T05:55:59;6.05;;;1.48;;
66966;SDS011;53900;51.468;-2.586;2023-08-01T05:58:25;9.43;;;1.80;;
66966;SDS011;53900;51.468;-2.586;2023-08-01T06:00:50;9.38;;;1.98;;
66966;SDS011;53900;51.468;-2.586;2023-08-01T06:03:15;8.60;;;1.70;;
66966;SDS011;53900;51.468;-2.586;2023-08-01T06:05:41;12.13;;;2.30;;
66966;SDS011;53900;51.468;-2.586;2023-08-01T06:08:06;6.75;;;1.70;;
66966;SDS011;53900;51.468;-2.586;2023-08-01T06:10:32;7.82;;;1.73;;
66966;SDS011;53900;51.468;-2.586;2023-08-01T06:12:57;9.23;;;2.17;;
66966;SDS011;53900;51.468;-2.586;2023-08-01T06:15:22;13.00;;;2.10;;
66966;SDS011;53900;51.468;-2.586;2023-08-01T06:17:47;7.75;;;2.10;;
66966;SDS011;53900;51.468;-2.586;2023-08-01T06:20:12;7.50;;;2.90;;
66966;SDS011;53900;51.468;-2.586;2023-08-01T06:22:38;7.38;;;2.00;;
66966;SDS011;53900;51.468;-2.586;2023-08-01T06:25:03;10.57;;;3.00;;
66966;SDS011;53900;51.468;-2.586;2023-08-01T06:27:28;13.65;;;2.20;;
66966;SDS011;53900;51.468;-2.586;2023-08-01T06:29:54;9.38;;;2.22;;
66966;SDS011;53900;51.468;-2.586;2023-08-01T06:32:19;8.68;;;2.47;;
66966;SDS011;53900;51.468;-2.586;2023-08-01T06:34:44;13.68;;;3.20;;
66966;SDS011;53900;51.468;-2.586;2023-08-01T06:37:09;11.27;;;2.53;;
66966;SDS011;53900;51.468;-2.586;2023-08-01T06:39:35;11.75;;;2.67;;
66966;SDS011;53900;51.468;-2.586;2023-08-01T06:42:00;13.23;;;2.78;;
66966;SDS011;53900;51.468;-2.586;2023-08-01T06:44:25;15.00;;;2.95;;
66966;SDS011;53900;51.468;-2.586;2023-08-01T06:46:50;9.48;;;2.70;;
66966;SDS011;53900;51.468;-2.586;2023-08-01T06:49:16;9.77;;;2.67;;
66966;SDS011;53900;51.468;-2.586;2023-08-01T06:51:41;8.57;;;2.45;;
66966;SDS011;53900;51.468;-2.586;2023-08-01T06:54:07;9.80;;;2.55;;
66966;SDS011;53900;51.468;-2.586;2023-08-01T06:56:33;11.15;;;3.28;;
66966;SDS011;53900;51.468;-2.586;2023-08-01T06:58:58;10.70;;;2.35;;
66966;SDS011;53900;51.468;-2.586;2023-08-01T07:01:23;14.88;;;2.75;;
66966;SDS011;53900;51.468;-2.586;2023-08-01T07:03:48;11.68;;;2.50;;
66966;SDS011;53900;51.468;-2.586;2023-08-01T07:06:16;8.77;;;2.40;;
66966;SDS011;53900;51.468;-2.586;2023-08-01T07:08:41;12.10;;;2.95;;
66966;SDS011;53900;51.468;-2.586;2023-08-01T07:11:06;11.27;;;2.10;;
66966;SDS011;53900;51.468;-2.586;2023-08-01T07:13:31;10.80;;;1.98;;
66966;SDS011;53900;51.468;-2.586;2023-08-01T07:15:56;15.07;;;2.28;;
66966;SDS011;53900;51.468;-2.586;2023-08-01T07:18:22;10.18;;;1.90;;
66966;SDS011;53900;51.468;-2.586;2023-08-01T07:20:47;9.07;;;1.83;;
66966;SDS011;53900;51.468;-2.586;2023-08-01T07:23:12;6.38;;;1.80;;
66966;SDS011;53900;51.468;-2.586;2023-08-01T07:25:37;9.10;;;2.05;;
66966;SDS011;53900;51.468;-2.586;2023-08-01T07:28:02;11.48;;;1.60;;
66966;SDS011;53900;51.468;-2.586;2023-08-01T07:30:28;6.50;;;1.45;;
66966;SDS011;53900;51.468;-2.586;2023-08-01T07:32:53;5.10;;;1.60;;
66966;SDS011;53900;51.468;-2.586;2023-08-01T07:35:19;6.90;;;1.70;;
66966;SDS011;53900;51.468;-2.586;2023-08-01T07:37:44;8.43;;;1.90;;
66966;SDS011;53900;51.468;-2.586;2023-08-01T07:40:09;8.65;;;1.67;;
66966;SDS011;53900;51.468;-2.586;2023-08-01T07:42:35;10.32;;;2.13;;
66966;SDS011;53900;51.468;-2.586;2023-08-01T07:45:00;13.40;;;1.80;;
66966;SDS011;53900;51.468;-2.586;2023-08-01T07:47:25;6.18;;;1.63;;
66966;SDS011;53900;51.468;-2.586;2023-08-01T07:49:51;12.32;;;2.03;;
66966;SDS011;53900;51.468;-2.586;2023-08-01T07:52:16;7.97;;;1.50;;
66966;SDS011;53900;51.468;-2.586;2023-08-01T07:54:41;8.40;;;1.83;;
66966;SDS011;53900;51.468;-2.586;2023-08-01T07:57:06;10.00;;;1.90;;
66966;SDS011;53900;51.468;-2.586;2023-08-01T07:59:31;10.80;;;1.55;;
66966;SDS011;53900;51.468;-2.586;2023-08-01T08:01:57;9.27;;;2.08;;
66966;SDS011;53900;51.468;-2.586;2023-08-01T08:04:22;10.80;;;2.28;;
66966;SDS011;53900;51.468;-2.586;2023-08-01T08:06:47;7.43;;;2.33;;
66966;SDS011;53900;51.468;-2.586;2023-08-01T08:09:12;9.30;;;1.90;;
66966;SDS011;53900;51.468;-2.586;2023-08-01T08:11:38;7.25;;;1.70;;
66966;SDS011;53900;51.468;-2.586;2023-08-01T08:14:03;7.32;;;1.80;;
66966;SDS011;53900;51.468;-2.586;2023-08-01T08:16:28;10.73;;;2.08;;
66966;SDS011;53900;51.468;-2.586;2023-08-01T08:18:53;6.97;;;1.90;;
66966;SDS011;53900;51.468;-2.586;2023-08-01T08:21:19;8.93;;;2.53;;
66966;SDS011;53900;51.468;-2.586;2023-08-01T08:23:44;7.78;;;1.83;;
66966;SDS011;53900;51.468;-2.586;2023-08-01T08:26:09;8.80;;;1.98;;
66966;SDS011;53900;51.468;-2.586;2023-08-01T08:28:34;8.73;;;2.00;;
66966;SDS011;53900;51.468;-2.586;2023-08-01T08:31:00;14.60;;;2.30;;
66966;SDS011;53900;51.468;-2.586;2023-08-01T08:33:27;8.88;;;1.65;;
66966;SDS011;53900;51.468;-2.586;2023-08-01T08:35:52;7.28;;;1.83;;
66966;SDS011;53900;51.468;-2.586;2023-08-01T08:38:17;7.95;;;1.60;;
66966;SDS011;53900;51.468;-2.586;2023-08-01T08:40:48;9.00;;;2.10;;
66966;SDS011;53900;51.468;-2.586;2023-08-01T08:43:15;7.95;;;2.13;;
66966;SDS011;53900;51.468;-2.586;2023-08-01T08:45:41;14.57;;;2.53;;
66966;SDS011;53900;51.468;-2.586;2023-08-01T08:48:12;6.18;;;2.00;;
66966;SDS011;53900;51.468;-2.586;2023-08-01T08:50:37;7.30;;;1.77;;
66966;SDS011;53900;51.468;-2.586;2023-08-01T08:53:03;4.85;;;1.73;;
66966;SDS011;53900;51.468;-2.586;2023-08-01T08:55:29;6.30;;;1.95;;
66966;SDS011;53900;51.468;-2.586;2023-08-01T08:57:54;10.63;;;2.08;;
66966;SDS011;53900;51.468;-2.586;2023-08-01T09:00:20;8.60;;;1.80;;
66966;SDS011;53900;51.468;-2.586;2023-08-01T09:02:45;7.63;;;1.85;;
66966;SDS011;53900;51.468;-2.586;2023-08-01T09:05:11;5.97;;;1.63;;
66966;SDS011;53900;51.468;-2.586;2023-08-01T09:07:39;4.38;;;1.70;;
66966;SDS011;53900;51.468;-2.586;2023-08-01T09:10:06;7.75;;;2.05;;
66966;SDS011;53900;51.468;-2.586;2023-08-01T09:12:33;14.00;;;2.15;;
66966;SDS011;53900;51.468;-2.586;2023-08-01T09:14:58;5.90;;;2.05;;
66966;SDS011;53900;51.468;-2.586;2023-08-01T09:17:24;7.15;;;1.92;;
66966;SDS011;53900;51.468;-2.586;2023-08-01T09:19:54;15.65;;;2.50;;
66966;SDS011;53900;51.468;-2.586;2023-08-01T09:22:19;5.20;;;1.92;;
66966;SDS011;53900;51.468;-2.586;2023-08-01T09:24:54;6.78;;;2.10;;
66966;SDS011;53900;51.468;-2.586;2023-08-01T09:27:20;6.80;;;2.05;;
66966;SDS011;53900;51.468;-2.586;2023-08-01T09:29:45;7.78;;;1.67;;
66966;SDS011;53900;51.468;-2.586;2023-08-01T09:32:12;7.10;;;2.53;;
66966;SDS011;53900;51.468;-2.586;2023-08-01T09:34:37;6.22;;;2.10;;
66966;SDS011;53900;51.468;-2.586;2023-08-01T09:37:03;8.73;;;1.80;;
66966;SDS011;53900;51.468;-2.586;2023-08-01T09:39:28;5.50;;;1.92;;
66966;SDS011;53900;51.468;-2.586;2023-08-01T09:41:57;11.95;;;1.90;;
66966;SDS011;53900;51.468;-2.586;2023-08-01T09:44:22;6.03;;;1.80;;
66966;SDS011;53900;51.468;-2.586;2023-08-01T09:47:00;5.57;;;1.63;;
66966;SDS011;53900;51.468;-2.586;2023-08-01T09:49:26;5.68;;;1.65;;
66966;SDS011;53900;51.468;-2.586;2023-08-01T09:51:52;7.40;;;2.08;;
66966;SDS011;53900;51.468;-2.586;2023-08-01T09:54:17;5.20;;;1.40;;
66966;SDS011;53900;51.468;-2.586;2023-08-01T09:56:47;5.03;;;1.60;;
66966;SDS011;53900;51.468;-2.586;2023-08-01T09:59:13;6.65;;;1.40;;
66966;SDS011;53900;51.468;-2.586;2023-08-01T10:01:41;8.10;;;1.45;;
66966;SDS011;53900;51.468;-2.586;2023-08-01T10:04:08;8.50;;;1.80;;
66966;SDS011;53900;51.468;-2.586;2023-08-01T10:06:37;6.88;;;1.40;;
66966;SDS011;53900;51.468;-2.586;2023-08-01T10:09:02;5.53;;;1.80;;
66966;SDS011;53900;51.468;-2.586;2023-08-01T10:11:28;5.10;;;1.48;;
66966;SDS011;53900;51.468;-2.586;2023-08-01T10:13:54;6.68;;;1.45;;
66966;SDS011;53900;51.468;-2.586;2023-08-01T10:16:20;6.25;;;1.40;;
66966;SDS011;53900;51.468;-2.586;2023-08-01T10:18:46;6.63;;;1.50;;
66966;SDS011;53900;51.468;-2.586;2023-08-01T10:21:13;4.72;;;1.48;;
66966;SDS011;53900;51.468;-2.586;2023-08-01T10:23:38;2.85;;;1.13;;
66966;SDS011;53900;51.468;-2.586;2023-08-01T10:26:05;3.33;;;1.20;;
66966;SDS011;53900;51.468;-2.586;2023-08-01T10:28:38;4.95;;;1.27;;
66966;SDS011;53900;51.468;-2.586;2023-08-01T10:31:07;4.03;;;1.40;;
66966;SDS011;53900;51.468;-2.586;2023-08-01T10:33:33;12.48;;;1.75;;
66966;SDS011;53900;51.468;-2.586;2023-08-01T10:35:58;7.03;;;1.77;;
66966;SDS011;53900;51.468;-2.586;2023-08-01T10:38:23;7.03;;;1.60;;
66966;SDS011;53900;51.468;-2.586;2023-08-01T10:40:48;5.07;;;1.83;;
66966;SDS011;53900;51.468;-2.586;2023-08-01T10:43:23;5.55;;;1.40;;
66966;SDS011;53900;51.468;-2.586;2023-08-01T10:45:48;5.95;;;1.50;;
66966;SDS011;53900;51.468;-2.586;2023-08-01T10:48:24;6.20;;;1.40;;
66966;SDS011;53900;51.468;-2.586;2023-08-01T10:50:56;7.00;;;1.50;;
66966;SDS011;53900;51.468;-2.586;2023-08-01T10:53:21;5.82;;;1.17;;
66966;SDS011;53900;51.468;-2.586;2023-08-01T10:55:47;8.88;;;1.90;;
66966;SDS011;53900;51.468;-2.586;2023-08-01T10:58:13;10.27;;;3.25;;
66966;SDS011;53900;51.468;-2.586;2023-08-01T11:00:39;8.10;;;1.40;;
66966;SDS011;53900;51.468;-2.586;2023-08-01T11:03:04;8.77;;;1.50;;
66966;SDS011;53900;51.468;-2.586;2023-08-01T11:05:29;4.15;;;1.60;;
66966;SDS011;53900;51.468;-2.586;2023-08-01T11:07:55;7.90;;;1.60;;
66966;SDS011;53900;51.468;-2.586;2023-08-01T11:10:21;8.15;;;1.63;;
66966;SDS011;53900;51.468;-2.586;2023-08-01T11:12:46;9.80;;;1.27;;
66966;SDS011;53900;51.468;-2.586;2023-08-01T11:15:13;6.72;;;1.20;;
66966;SDS011;53900;51.468;-2.586;2023-08-01T11:17:42;4.22;;;1.55;;
66966;SDS011;53900;51.468;-2.586;2023-08-01T11:22:33;2.65;;;1.10;;
66966;SDS011;53900;51.468;-2.586;2023-08-01T11:24:58;8.40;;;1.55;;
66966;SDS011;53900;51.468;-2.586;2023-08-01T11:27:24;5.70;;;1.50;;
66966;SDS011;53900;51.468;-2.586;2023-08-01T11:29:49;9.45;;;1.83;;
66966;SDS011;53900;51.468;-2.586;2023-08-01T11:32:14;7.28;;;1.58;;
66966;SDS011;53900;51.468;-2.586;2023-08-01T11:34:40;2.75;;;1.13;;
66966;SDS011;53900;51.468;-2.586;2023-08-01T11:37:11;5.03;;;1.58;;
66966;SDS011;53900;51.468;-2.586;2023-08-01T11:39:37;6.55;;;1.50;;
66966;SDS011;53900;51.468;-2.586;2023-08-01T11:42:02;4.07;;;1.40;;
66966;SDS011;53900;51.468;-2.586;2023-08-01T11:44:28;5.82;;;1.30;;
66966;SDS011;53900;51.468;-2.586;2023-08-01T11:46:53;4.28;;;1.30;;
66966;SDS011;53900;51.468;-2.586;2023-08-01T11:49:18;6.93;;;1.70;;
66966;SDS011;53900;51.468;-2.586;2023-08-01T11:51:44;7.57;;;1.70;;
66966;SDS011;53900;51.468;-2.586;2023-08-01T11:54:10;7.13;;;1.48;;
66966;SDS011;53900;51.468;-2.586;2023-08-01T11:56:36;7.65;;;1.42;;
66966;SDS011;53900;51.468;-2.586;2023-08-01T12:01:37;5.65;;;1.45;;
66966;SDS011;53900;51.468;-2.586;2023-08-01T12:04:02;6.40;;;1.15;;
66966;SDS011;53900;51.468;-2.586;2023-08-01T12:06:30;5.65;;;1.20;;
66966;SDS011;53900;51.468;-2.586;2023-08-01T12:09:05;4.95;;;1.33;;
66966;SDS011;53900;51.468;-2.586;2023-08-01T12:11:30;3.70;;;1.30;;
66966;SDS011;53900;51.468;-2.586;2023-08-01T12:16:27;5.30;;;1.13;;
66966;SDS011;53900;51.468;-2.586;2023-08-01T12:18:52;3.77;;;1.17;;
66966;SDS011;53900;51.468;-2.586;2023-08-01T12:21:18;4.32;;;1.10;;
66966;SDS011;53900;51.468;-2.586;2023-08-01T12:23:43;3.65;;;1.20;;
66966;SDS011;53900;51.468;-2.586;2023-08-01T12:26:08;3.33;;;1.00;;
66966;SDS011;53900;51.468;-2.586;2023-08-01T12:28:33;2.85;;;1.02;;
66966;SDS011;53900;51.468;-2.586;2023-08-01T12:30:59;3.78;;;1.40;;
66966;SDS011;53900;51.468;-2.586;2023-08-01T12:33:24;4.93;;;1.30;;
66966;SDS011;53900;51.468;-2.586;2023-08-01T12:35:50;7.95;;;1.20;;
66966;SDS011;53900;51.468;-2.586;2023-08-01T12:38:15;6.37;;;1.40;;
66966;SDS011;53900;51.468;-2.586;2023-08-01T12:40:40;5.75;;;1.23;;
66966;SDS011;53900;51.468;-2.586;2023-08-01T12:43:05;6.73;;;1.40;;
66966;SDS011;53900;51.468;-2.586;2023-08-01T12:45:31;4.27;;;1.20;;
66966;SDS011;53900;51.468;-2.586;2023-08-01T12:47:56;3.77;;;1.43;;
66966;SDS011;53900;51.468;-2.586;2023-08-01T12:50:21;4.47;;;1.05;;
66966;SDS011;53900;51.468;-2.586;2023-08-01T12:52:46;3.92;;;1.17;;
66966;SDS011;53900;51.468;-2.586;2023-08-01T12:55:11;9.18;;;1.27;;
66966;SDS011;53900;51.468;-2.586;2023-08-01T12:57:37;4.55;;;1.30;;
66966;SDS011;53900;51.468;-2.586;2023-08-01T13:00:02;4.85;;;1.30;;
66966;SDS011;53900;51.468;-2.586;2023-08-01T13:02:27;3.22;;;1.58;;
66966;SDS011;53900;51.468;-2.586;2023-08-01T13:04:53;5.07;;;1.23;;
66966;SDS011;53900;51.468;-2.586;2023-08-01T13:07:18;3.47;;;1.13;;
66966;SDS011;53900;51.468;-2.586;2023-08-01T13:09:43;7.07;;;1.57;;
66966;SDS011;53900;51.468;-2.586;2023-08-01T13:12:08;5.87;;;1.23;;
66966;SDS011;53900;51.468;-2.586;2023-08-01T13:14:33;7.22;;;1.60;;
66966;SDS011;53900;51.468;-2.586;2023-08-01T13:16:59;8.60;;;1.70;;
66966;SDS011;53900;51.468;-2.586;2023-08-01T13:19:24;4.97;;;1.30;;
66966;SDS011;53900;51.468;-2.586;2023-08-01T13:21:49;5.28;;;1.60;;
66966;SDS011;53900;51.468;-2.586;2023-08-01T13:24:15;3.87;;;1.30;;
66966;SDS011;53900;51.468;-2.586;2023-08-01T13:26:40;3.07;;;1.20;;
66966;SDS011;53900;51.468;-2.586;2023-08-01T13:29:05;4.33;;;1.13;;
66966;SDS011;53900;51.468;-2.586;2023-08-01T13:31:30;3.38;;;1.80;;
66966;SDS011;53900;51.468;-2.586;2023-08-01T13:33:55;4.18;;;1.30;;
66966;SDS011;53900;51.468;-2.586;2023-08-01T13:36:20;6.05;;;1.40;;
66966;SDS011;53900;51.468;-2.586;2023-08-01T13:38:46;4.75;;;1.50;;
66966;SDS011;53900;51.468;-2.586;2023-08-01T13:41:11;8.40;;;1.97;;
66966;SDS011;53900;51.468;-2.586;2023-08-01T13:43:36;6.25;;;1.60;;
66966;SDS011;53900;51.468;-2.586;2023-08-01T13:46:14;5.93;;;1.20;;
66966;SDS011;53900;51.468;-2.586;2023-08-01T13:48:40;5.70;;;1.42;;
66966;SDS011;53900;51.468;-2.586;2023-08-01T13:51:06;4.97;;;1.48;;
66966;SDS011;53900;51.468;-2.586;2023-08-01T13:53:31;8.33;;;1.23;;
66966;SDS011;53900;51.468;-2.586;2023-08-01T13:55:56;3.03;;;1.05;;
66966;SDS011;53900;51.468;-2.586;2023-08-01T13:58:21;6.10;;;1.30;;
66966;SDS011;53900;51.468;-2.586;2023-08-01T14:00:46;4.43;;;1.13;;
66966;SDS011;53900;51.468;-2.586;2023-08-01T14:03:12;3.40;;;1.20;;
66966;SDS011;53900;51.468;-2.586;2023-08-01T14:05:37;7.57;;;1.30;;
66966;SDS011;53900;51.468;-2.586;2023-08-01T14:08:02;3.23;;;1.20;;
66966;SDS011;53900;51.468;-2.586;2023-08-01T14:10:27;4.00;;;0.82;;
66966;SDS011;53900;51.468;-2.586;2023-08-01T14:12:52;5.25;;;1.10;;
66966;SDS011;53900;51.468;-2.586;2023-08-01T14:15:18;4.55;;;1.30;;
66966;SDS011;53900;51.468;-2.586;2023-08-01T14:17:43;6.90;;;0.93;;
66966;SDS011;53900;51.468;-2.586;2023-08-01T14:20:08;2.40;;;0.95;;
66966;SDS011;53900;51.468;-2.586;2023-08-01T14:22:34;4.97;;;0.80;;
66966;SDS011;53900;51.468;-2.586;2023-08-01T14:24:59;7.15;;;1.10;;
66966;SDS011;53900;51.468;-2.586;2023-08-01T14:27:24;3.53;;;1.17;;